createdAt,value
2018-12-20T00:01:42.137Z,30.50
2018-12-20T00:04:10.897Z,26.10
2018-12-20T00:06:39.354Z,30.63
2018-12-20T00:09:07.843Z,28.23
2018-12-20T00:11:36.788Z,30.37
2018-12-20T00:14:05.338Z,27.57
2018-12-20T00:16:34.161Z,36.17
2018-12-20T00:19:02.510Z,27.87
2018-12-20T00:21:30.975Z,27.67
2018-12-20T00:23:59.356Z,32.40
2018-12-20T00:26:27.669Z,32.13
2018-12-20T00:28:56.294Z,34.00
2018-12-20T00:31:24.763Z,31.70
2018-12-20T00:33:53.263Z,34.27
2018-12-20T00:36:21.710Z,34.07
2018-12-20T00:38:49.954Z,32.23
2018-12-20T00:41:18.065Z,31.60
2018-12-20T00:43:46.341Z,35.00
2018-12-20T00:46:14.776Z,36.70
2018-12-20T00:48:43.057Z,32.30
2018-12-20T00:51:11.290Z,29.60
2018-12-20T00:53:39.425Z,34.63
2018-12-20T00:56:07.743Z,35.20
2018-12-20T00:58:36.193Z,35.10
2018-12-20T01:01:04.507Z,33.33
2018-12-20T01:03:32.649Z,34.23
2018-12-20T01:06:00.797Z,34.67
2018-12-20T01:08:29.142Z,29.23
2018-12-20T01:10:57.429Z,29.27
2018-12-20T01:13:25.854Z,33.50
2018-12-20T01:15:54.069Z,27.37
2018-12-20T01:18:22.341Z,20.47
2018-12-20T01:20:50.767Z,24.80
2018-12-20T01:23:18.976Z,23.53
2018-12-20T01:25:47.292Z,21.43
2018-12-20T01:28:15.611Z,19.90
2018-12-20T01:30:43.885Z,21.47
2018-12-20T01:33:12.000Z,23.83
2018-12-20T01:35:40.229Z,21.40
2018-12-20T01:38:08.435Z,17.23
2018-12-20T01:40:36.840Z,18.30
2018-12-20T01:43:05.202Z,17.00
2018-12-20T01:45:33.700Z,18.00
2018-12-20T01:48:02.056Z,16.73
2018-12-20T01:50:30.408Z,20.27
2018-12-20T01:52:58.618Z,16.13
2018-12-20T01:55:26.842Z,17.87
2018-12-20T01:57:55.181Z,17.67
2018-12-20T02:00:23.518Z,18.13
2018-12-20T02:02:51.622Z,18.03
2018-12-20T02:05:19.781Z,21.40
2018-12-20T02:07:47.950Z,17.13
2018-12-20T02:10:16.149Z,17.73
2018-12-20T02:12:44.650Z,19.57
2018-12-20T02:15:13.128Z,18.17
2018-12-20T02:17:41.390Z,16.80
2018-12-20T02:20:09.546Z,18.70
2018-12-20T02:22:38.029Z,17.30
2018-12-20T02:25:06.520Z,17.60
2018-12-20T02:27:34.907Z,19.97
2018-12-20T02:30:03.164Z,18.70
2018-12-20T02:32:31.440Z,18.37
2018-12-20T02:34:59.614Z,19.67
2018-12-20T02:37:27.797Z,22.40
2018-12-20T02:39:56.154Z,21.70
2018-12-20T02:42:24.426Z,21.47
2018-12-20T02:44:52.639Z,18.13
2018-12-20T02:47:22.987Z,23.60
2018-12-20T02:49:51.321Z,23.87
2018-12-20T02:52:19.545Z,20.47
2018-12-20T02:54:48.021Z,21.57
2018-12-20T02:57:16.355Z,19.17
2018-12-20T02:59:44.471Z,20.80
2018-12-20T03:02:12.598Z,19.93
2018-12-20T03:04:40.724Z,23.10
2018-12-20T03:07:08.948Z,19.17
2018-12-20T03:09:37.088Z,21.13
2018-12-20T03:12:05.254Z,23.47
2018-12-20T03:14:33.463Z,19.93
2018-12-20T03:17:01.925Z,23.60
2018-12-20T03:19:30.633Z,21.63
2018-12-20T03:21:58.866Z,19.20
2018-12-20T03:24:27.228Z,21.17
2018-12-20T03:26:55.531Z,20.30
2018-12-20T03:29:23.963Z,23.40
2018-12-20T03:31:52.389Z,23.50
2018-12-20T03:34:20.812Z,19.63
2018-12-20T03:36:48.995Z,21.20
2018-12-20T03:39:17.307Z,21.53
2018-12-20T03:41:45.615Z,19.07
2018-12-20T03:44:13.869Z,19.87
2018-12-20T03:46:41.988Z,17.97
2018-12-20T03:49:10.475Z,18.73
2018-12-20T03:51:38.856Z,20.67
2018-12-20T03:54:07.112Z,17.10
2018-12-20T03:56:35.552Z,19.30
2018-12-20T03:59:04.052Z,17.50
2018-12-20T04:01:32.455Z,20.13
2018-12-20T04:04:00.854Z,21.80
2018-12-20T04:06:29.044Z,19.87
2018-12-20T04:08:57.424Z,20.77
2018-12-20T04:11:25.812Z,18.33
2018-12-20T04:13:54.128Z,20.77
2018-12-20T04:16:22.316Z,17.50
2018-12-20T04:18:50.839Z,15.03
2018-12-20T04:21:19.103Z,20.13
2018-12-20T04:23:47.442Z,17.53
2018-12-20T04:26:15.964Z,21.47
2018-12-20T04:28:44.329Z,19.53
2018-12-20T04:31:12.630Z,17.27
2018-12-20T04:33:41.279Z,20.20
2018-12-20T04:36:09.537Z,16.53
2018-12-20T04:38:37.713Z,15.13
2018-12-20T04:41:06.143Z,16.33
2018-12-20T04:43:34.443Z,16.47
2018-12-20T04:46:02.886Z,15.80
2018-12-20T04:48:31.261Z,18.10
2018-12-20T04:50:59.569Z,20.87
2018-12-20T04:53:27.953Z,18.93
2018-12-20T04:55:56.625Z,18.73
2018-12-20T04:58:24.857Z,17.03
2018-12-20T05:00:53.004Z,18.40
2018-12-20T05:03:21.159Z,18.63
2018-12-20T05:05:49.884Z,18.27
2018-12-20T05:08:18.263Z,19.20
2018-12-20T05:10:46.695Z,17.07
2018-12-20T05:13:15.032Z,18.00
2018-12-20T05:15:43.414Z,16.23
2018-12-20T05:18:11.674Z,18.43
2018-12-20T05:20:39.923Z,19.03
2018-12-20T05:23:08.256Z,20.60
2018-12-20T05:25:36.735Z,20.63
2018-12-20T05:28:05.114Z,17.43
2018-12-20T05:30:33.679Z,17.70
2018-12-20T05:33:01.971Z,15.37
2018-12-20T05:35:30.331Z,20.07
2018-12-20T05:37:58.637Z,16.67
2018-12-20T05:40:27.066Z,20.90
2018-12-20T05:42:55.241Z,19.83
2018-12-20T05:45:23.456Z,17.93
2018-12-20T05:47:51.617Z,20.13
2018-12-20T05:50:19.851Z,16.10
2018-12-20T05:52:48.366Z,18.53
2018-12-20T05:55:16.772Z,21.87
2018-12-20T05:57:45.033Z,16.70
2018-12-20T06:00:13.230Z,16.13
2018-12-20T06:02:41.447Z,18.33
2018-12-20T06:05:09.785Z,19.00
2018-12-20T06:07:38.327Z,17.97
2018-12-20T06:10:06.787Z,19.63
2018-12-20T06:12:35.073Z,19.27
2018-12-20T06:15:03.700Z,18.87
2018-12-20T06:17:31.882Z,23.87
2018-12-20T06:20:00.316Z,20.50
2018-12-20T06:22:28.736Z,20.17
2018-12-20T06:24:56.957Z,21.13
2018-12-20T06:27:25.132Z,17.70
2018-12-20T06:29:53.354Z,19.17
2018-12-20T06:32:21.482Z,19.07
2018-12-20T06:34:49.693Z,19.07
2018-12-20T06:37:17.832Z,20.37
2018-12-20T06:39:45.985Z,20.57
2018-12-20T06:42:14.090Z,18.10
2018-12-20T06:44:42.854Z,17.80
2018-12-20T06:47:11.041Z,20.60
2018-12-20T06:49:39.269Z,20.37
2018-12-20T06:52:07.473Z,20.83
2018-12-20T06:54:35.642Z,17.30
2018-12-20T06:57:03.848Z,23.10
2018-12-20T06:59:31.988Z,18.17
2018-12-20T07:02:00.208Z,15.83
2018-12-20T07:04:28.328Z,19.50
2018-12-20T07:06:56.461Z,20.20
2018-12-20T07:09:24.573Z,22.43
2018-12-20T07:11:53.576Z,21.47
2018-12-20T07:14:21.702Z,20.67
2018-12-20T07:16:49.830Z,16.33
2018-12-20T07:19:17.989Z,18.20
2018-12-20T07:21:46.117Z,17.83
2018-12-20T07:24:14.318Z,17.10
2018-12-20T07:26:42.550Z,17.20
2018-12-20T07:29:10.657Z,17.67
2018-12-20T07:31:38.809Z,13.83
2018-12-20T07:34:06.929Z,17.37
2018-12-20T07:36:35.046Z,17.10
2018-12-20T07:39:05.171Z,14.40
2018-12-20T07:41:33.642Z,13.70
2018-12-20T07:44:01.823Z,13.83
2018-12-20T07:46:37.792Z,14.13
2018-12-20T07:49:00.796Z,16.33
2018-12-20T07:51:29.115Z,15.30
2018-12-20T07:53:57.288Z,14.00
2018-12-20T07:56:25.461Z,17.97
2018-12-20T07:58:53.645Z,13.27
2018-12-20T08:01:21.818Z,12.63
2018-12-20T08:03:49.960Z,13.17
2018-12-20T08:06:18.108Z,14.50
2018-12-20T08:08:46.315Z,15.43
2018-12-20T08:11:14.600Z,17.67
2018-12-20T08:13:42.736Z,11.50
2018-12-20T08:16:10.958Z,10.83
2018-12-20T08:18:39.112Z,14.47
2018-12-20T08:21:07.316Z,13.40
2018-12-20T08:23:35.460Z,14.47
2018-12-20T08:26:03.619Z,13.13
2018-12-20T08:28:31.854Z,17.87
2018-12-20T08:31:00.195Z,16.57
2018-12-20T08:33:28.372Z,17.80
2018-12-20T08:35:56.526Z,17.67
2018-12-20T08:38:24.743Z,18.10
2018-12-20T08:40:52.943Z,15.17
2018-12-20T08:43:21.068Z,14.67
2018-12-20T08:45:49.294Z,13.90
2018-12-20T08:48:17.416Z,13.33
2018-12-20T08:50:45.566Z,17.20
2018-12-20T08:53:13.664Z,14.60
2018-12-20T08:55:41.802Z,15.30
2018-12-20T08:58:10.024Z,11.80
2018-12-20T09:00:38.197Z,11.40
2018-12-20T09:03:06.446Z,17.67
2018-12-20T09:05:34.586Z,13.80
2018-12-20T09:08:02.785Z,10.27
2018-12-20T09:10:30.994Z,19.10
2018-12-20T09:12:59.157Z,13.03
2018-12-20T09:15:27.412Z,17.57
2018-12-20T09:17:55.526Z,11.03
2018-12-20T09:20:23.785Z,12.63
2018-12-20T09:22:52.060Z,13.27
2018-12-20T09:25:20.217Z,13.60
2018-12-20T09:27:48.505Z,17.87
2018-12-20T09:30:16.633Z,15.17
2018-12-20T09:32:44.737Z,13.97
2018-12-20T09:35:13.697Z,13.73
2018-12-20T09:37:42.537Z,11.07
2018-12-20T09:40:10.723Z,12.33
2018-12-20T09:42:39.028Z,13.50
2018-12-20T09:45:07.672Z,11.83
2018-12-20T09:47:41.419Z,15.50
2018-12-20T09:50:09.533Z,12.33
2018-12-20T09:52:38.383Z,12.63
2018-12-20T09:55:06.522Z,12.23
2018-12-20T09:57:34.684Z,12.17
2018-12-20T10:00:02.988Z,17.67
2018-12-20T10:02:31.985Z,15.00
2018-12-20T10:05:00.318Z,12.33
2018-12-20T10:07:29.188Z,14.37
2018-12-20T10:09:57.525Z,13.70
2018-12-20T10:12:26.322Z,14.20
2018-12-20T10:14:54.538Z,14.57
2018-12-20T10:17:22.716Z,17.80
2018-12-20T10:19:50.839Z,13.90
2018-12-20T10:22:18.941Z,11.87
2018-12-20T10:24:47.120Z,14.93
2018-12-20T10:27:17.504Z,16.33
2018-12-20T10:29:51.862Z,16.80
2018-12-20T10:32:20.312Z,15.47
2018-12-20T10:34:48.472Z,14.00
2018-12-20T10:37:16.723Z,14.03
2018-12-20T10:39:44.848Z,12.67
2018-12-20T10:42:14.494Z,13.23
2018-12-20T10:44:42.629Z,15.17
2018-12-20T10:47:16.370Z,14.07
2018-12-20T10:49:44.525Z,13.90
2018-12-20T10:52:12.725Z,14.67
2018-12-20T10:54:40.867Z,14.10
2018-12-20T10:57:09.037Z,13.80
2018-12-20T10:59:37.257Z,13.37
2018-12-20T11:02:10.696Z,13.27
2018-12-20T11:04:44.213Z,17.57
2018-12-20T11:07:17.808Z,16.13
2018-12-20T11:10:51.393Z,19.17
2018-12-20T11:13:24.726Z,10.00
2018-12-20T11:15:53.085Z,13.40
2018-12-20T11:18:21.200Z,14.03
2018-12-20T11:20:49.330Z,9.37
2018-12-20T11:23:17.464Z,11.43
2018-12-20T11:25:45.580Z,12.23
2018-12-20T11:28:13.681Z,15.53
2018-12-20T11:30:41.841Z,10.57
2018-12-20T11:33:10.010Z,11.20
2018-12-20T11:35:38.596Z,15.47
2018-12-20T11:38:06.698Z,15.83
2018-12-20T11:40:34.880Z,15.93
2018-12-20T11:43:03.009Z,13.13
2018-12-20T11:45:31.109Z,16.53
2018-12-20T11:47:59.553Z,20.67
2018-12-20T11:50:27.673Z,20.00
2018-12-20T11:52:55.862Z,10.07
2018-12-20T11:55:24.028Z,14.77
2018-12-20T11:57:52.152Z,17.87
2018-12-20T12:00:20.269Z,17.93
2018-12-20T12:02:48.432Z,13.37
2018-12-20T12:05:16.563Z,12.87
2018-12-20T12:07:44.660Z,11.53
2018-12-20T12:10:12.877Z,11.27
2018-12-20T12:12:41.026Z,13.13
2018-12-20T12:15:09.150Z,13.43
2018-12-20T12:17:37.349Z,16.33
2018-12-20T12:20:06.136Z,12.77
2018-12-20T12:22:34.300Z,12.93
2018-12-20T12:25:02.497Z,11.97
2018-12-20T12:27:30.661Z,11.47
2018-12-20T12:29:58.787Z,16.23
2018-12-20T12:32:27.684Z,15.53
2018-12-20T12:34:55.776Z,13.27
2018-12-20T12:37:37.084Z,16.40
2018-12-20T12:40:05.576Z,10.50
2018-12-20T12:42:33.765Z,8.47
2018-12-20T12:45:01.900Z,11.13
2018-12-20T12:47:35.634Z,10.67
2018-12-20T12:50:04.012Z,9.50
2018-12-20T12:52:32.224Z,14.20
2018-12-20T12:55:00.341Z,12.57
2018-12-20T12:57:28.485Z,10.70
2018-12-20T12:59:56.601Z,11.10
2018-12-20T13:02:24.708Z,11.80
2018-12-20T13:04:52.943Z,8.23
2018-12-20T13:07:21.069Z,9.00
2018-12-20T13:09:49.177Z,17.57
2018-12-20T13:12:17.324Z,12.40
2018-12-20T13:14:45.420Z,9.47
2018-12-20T13:17:13.585Z,9.73
2018-12-20T13:19:41.692Z,9.43
2018-12-20T13:22:09.836Z,15.43
2018-12-20T13:24:38.017Z,14.63
2018-12-20T13:27:06.359Z,8.30
2018-12-20T13:29:34.762Z,10.20
2018-12-20T13:32:02.943Z,9.90
2018-12-20T13:34:31.170Z,9.80
2018-12-20T13:36:59.285Z,9.40
2018-12-20T13:39:27.393Z,9.50
2018-12-20T13:41:55.637Z,13.93
2018-12-20T13:44:23.862Z,11.13
2018-12-20T13:46:51.994Z,12.70
2018-12-20T13:49:20.160Z,12.70
2018-12-20T13:51:48.354Z,13.17
2018-12-20T13:54:16.521Z,11.03
2018-12-20T13:56:44.653Z,10.20
2018-12-20T13:59:12.759Z,14.00
2018-12-20T14:01:40.871Z,10.80
2018-12-20T14:04:08.974Z,15.63
2018-12-20T14:06:37.450Z,12.77
2018-12-20T14:09:06.998Z,13.40
2018-12-20T14:11:35.160Z,11.73
2018-12-20T14:14:03.401Z,13.17
2018-12-20T14:16:31.629Z,8.27
2018-12-20T14:18:59.814Z,11.00
2018-12-20T14:21:27.950Z,10.37
2018-12-20T14:23:56.265Z,12.13
2018-12-20T14:26:24.362Z,14.43
2018-12-20T14:28:52.465Z,10.30
2018-12-20T14:31:20.656Z,11.20
2018-12-20T14:33:48.896Z,19.70
2018-12-20T14:36:17.142Z,12.93
2018-12-20T14:38:45.282Z,12.43
2018-12-20T14:41:13.555Z,13.93
2018-12-20T14:43:41.716Z,9.53
2018-12-20T14:46:09.903Z,9.30
2018-12-20T14:48:39.511Z,13.33
2018-12-20T14:51:08.285Z,13.97
2018-12-20T14:53:36.567Z,14.30
2018-12-20T14:56:04.794Z,10.93
2018-12-20T14:58:32.908Z,16.00
2018-12-20T15:01:01.078Z,12.00
2018-12-20T15:03:29.707Z,11.77
2018-12-20T15:05:59.123Z,11.30
2018-12-20T15:08:27.572Z,15.77
2018-12-20T15:10:55.671Z,16.03
2018-12-20T15:13:23.891Z,19.30
2018-12-20T15:15:52.093Z,11.87
2018-12-20T15:18:21.195Z,12.03
2018-12-20T15:20:49.395Z,10.53
2018-12-20T15:23:17.586Z,12.00
2018-12-20T15:25:45.826Z,12.53
2018-12-20T15:28:13.954Z,13.50
2018-12-20T15:30:42.170Z,10.93
2018-12-20T15:33:10.385Z,12.53
2018-12-20T15:35:38.565Z,13.10
2018-12-20T15:38:07.396Z,10.07
2018-12-20T15:40:35.573Z,19.17
2018-12-20T15:43:03.725Z,12.47
2018-12-20T15:45:31.881Z,9.27
2018-12-20T15:48:00.071Z,11.17
2018-12-20T15:50:28.235Z,14.80
2018-12-20T15:52:56.505Z,10.97
2018-12-20T15:55:24.736Z,9.63
2018-12-20T15:57:52.876Z,12.37
2018-12-20T16:00:21.681Z,9.67
2018-12-20T16:02:49.829Z,9.17
2018-12-20T16:05:18.005Z,14.57
2018-12-20T16:07:46.177Z,14.77
2018-12-20T16:10:14.594Z,8.33
2018-12-20T16:12:42.763Z,12.53
2018-12-20T16:15:10.873Z,12.67
2018-12-20T16:17:40.140Z,14.97
2018-12-20T16:20:08.317Z,10.33
2018-12-20T16:22:36.484Z,9.47
2018-12-20T16:25:05.246Z,11.63
2018-12-20T16:27:33.510Z,18.20
2018-12-20T16:30:01.647Z,13.50
2018-12-20T16:32:30.438Z,12.57
2018-12-20T16:34:58.804Z,12.83
2018-12-20T16:37:27.974Z,16.93
2018-12-20T16:39:56.217Z,15.47
2018-12-20T16:42:24.917Z,19.87
2018-12-20T16:44:53.073Z,13.77
2018-12-20T16:47:21.261Z,17.37
2018-12-20T16:49:49.441Z,15.93
2018-12-20T16:52:17.605Z,13.23
2018-12-20T16:54:45.709Z,15.13
2018-12-20T16:57:13.836Z,18.97
2018-12-20T16:59:42.673Z,17.47
2018-12-20T17:02:10.787Z,14.53
2018-12-20T17:04:38.976Z,13.50
2018-12-20T17:07:07.191Z,15.67
2018-12-20T17:09:35.398Z,14.87
2018-12-20T17:12:03.524Z,21.43
2018-12-20T17:14:31.669Z,22.30
2018-12-20T17:16:59.825Z,17.67
2018-12-20T17:19:27.976Z,16.13
2018-12-20T17:21:56.128Z,21.03
2018-12-20T17:24:24.248Z,16.60
2018-12-20T17:26:52.452Z,21.83
2018-12-20T17:29:20.619Z,19.80
2018-12-20T17:31:48.778Z,19.30
2018-12-20T17:34:16.904Z,19.83
2018-12-20T17:36:45.077Z,17.27
2018-12-20T17:39:13.304Z,21.93
2018-12-20T17:41:41.450Z,17.60
2018-12-20T17:44:09.567Z,24.87
2018-12-20T17:46:37.687Z,23.53
2018-12-20T17:49:05.804Z,21.63
2018-12-20T17:51:33.983Z,24.53
2018-12-20T17:54:02.267Z,26.10
2018-12-20T17:56:30.390Z,26.97
2018-12-20T17:58:58.495Z,28.30
2018-12-20T18:01:26.618Z,36.47
2018-12-20T18:03:54.757Z,30.17
2018-12-20T18:06:22.936Z,29.90
2018-12-20T18:08:51.100Z,30.33
2018-12-20T18:11:19.797Z,28.00
2018-12-20T18:13:47.977Z,26.97
2018-12-20T18:16:16.144Z,31.70
2018-12-20T18:18:44.286Z,33.13
2018-12-20T18:21:12.527Z,26.03
2018-12-20T18:23:40.646Z,19.63
2018-12-20T18:26:08.834Z,24.17
2018-12-20T18:28:36.933Z,26.77
2018-12-20T18:31:05.067Z,27.67
2018-12-20T18:33:33.791Z,26.87
2018-12-20T18:36:01.955Z,24.70
2018-12-20T18:38:30.193Z,24.60
2018-12-20T18:40:58.417Z,20.57
2018-12-20T18:43:26.566Z,20.03
2018-12-20T18:45:54.747Z,20.10
2018-12-20T18:48:22.867Z,22.90
2018-12-20T18:50:50.982Z,20.47
2018-12-20T18:53:19.147Z,21.63
2018-12-20T18:55:47.252Z,22.53
2018-12-20T18:58:15.382Z,22.47
2018-12-20T19:00:43.598Z,22.53
2018-12-20T19:03:11.735Z,22.73
2018-12-20T19:05:39.883Z,21.90
2018-12-20T19:08:08.012Z,17.17
2018-12-20T19:10:36.168Z,24.57
2018-12-20T19:13:04.348Z,24.70
2018-12-20T19:15:32.521Z,22.13
2018-12-20T19:18:00.696Z,19.30
2018-12-20T19:20:28.926Z,24.97
2018-12-20T19:22:57.142Z,22.67
2018-12-20T19:25:25.302Z,22.63
2018-12-20T19:27:53.687Z,18.87
2018-12-20T19:30:23.621Z,24.90
2018-12-20T19:32:52.404Z,19.90
2018-12-20T19:35:20.536Z,27.07
2018-12-20T19:37:48.730Z,21.43
2018-12-20T19:40:16.887Z,23.93
2018-12-20T19:42:45.162Z,21.73
2018-12-20T19:45:13.398Z,21.73
2018-12-20T19:47:41.547Z,20.17
2018-12-20T19:50:10.153Z,21.00
2018-12-20T19:52:38.293Z,20.60
2018-12-20T19:55:06.747Z,19.70
2018-12-20T19:57:34.892Z,17.13
2018-12-20T20:00:03.297Z,18.27
2018-12-20T20:02:31.533Z,20.17
2018-12-20T20:04:59.659Z,15.00
2018-12-20T20:07:27.765Z,13.27
2018-12-20T20:09:55.937Z,13.23
2018-12-20T20:12:24.170Z,16.43
2018-12-20T20:14:52.415Z,14.20
2018-12-20T20:17:20.755Z,15.33
2018-12-20T20:19:48.926Z,9.00
2018-12-20T20:22:17.178Z,16.67
2018-12-20T20:24:45.365Z,14.00
2018-12-20T20:27:15.835Z,13.13
2018-12-20T20:29:44.259Z,12.60
2018-12-20T20:32:12.421Z,15.07
2018-12-20T20:34:40.544Z,8.83
2018-12-20T20:37:08.676Z,15.03
2018-12-20T20:39:36.789Z,13.47
2018-12-20T20:42:04.958Z,14.80
2018-12-20T20:44:33.081Z,16.40
2018-12-20T20:47:01.328Z,11.83
2018-12-20T20:49:29.467Z,12.80
2018-12-20T20:51:57.662Z,14.80
2018-12-20T20:54:25.812Z,10.17
2018-12-20T20:56:53.949Z,7.83
2018-12-20T20:59:22.073Z,9.93
2018-12-20T21:01:50.201Z,5.97
2018-12-20T21:04:18.400Z,11.27
2018-12-20T21:06:47.442Z,10.27
2018-12-20T21:09:16.116Z,9.63
2018-12-20T21:11:44.488Z,15.57
2018-12-20T21:14:12.642Z,11.70
2018-12-20T21:16:41.955Z,12.33
2018-12-20T21:19:10.293Z,17.87
2018-12-20T21:21:38.534Z,18.30
2018-12-20T21:24:06.973Z,18.80
2018-12-20T21:26:35.748Z,21.83
2018-12-20T21:29:04.629Z,18.70
2018-12-20T21:31:32.867Z,22.33
2018-12-20T21:34:01.215Z,19.10
2018-12-20T21:36:29.482Z,18.23
2018-12-20T21:38:59.275Z,16.13
2018-12-20T21:41:27.647Z,20.17
2018-12-20T21:43:56.417Z,20.80
2018-12-20T21:46:25.612Z,23.10
2018-12-20T21:48:53.742Z,19.13
2018-12-20T21:51:22.424Z,20.27
2018-12-20T21:53:55.011Z,20.87
2018-12-20T21:56:21.418Z,21.70
2018-12-20T21:58:49.599Z,21.10
2018-12-20T22:01:17.886Z,25.10
2018-12-20T22:03:46.012Z,28.07
2018-12-20T22:06:14.206Z,23.20
2018-12-20T22:08:42.366Z,18.50
2018-12-20T22:11:10.600Z,19.83
2018-12-20T22:13:39.278Z,22.50
2018-12-20T22:16:07.840Z,20.67
2018-12-20T22:18:36.542Z,21.10
2018-12-20T22:21:04.677Z,19.57
2018-12-20T22:23:32.848Z,19.53
2018-12-20T22:26:01.028Z,24.57
2018-12-20T22:28:29.198Z,16.97
2018-12-20T22:30:57.324Z,21.73
2018-12-20T22:33:25.520Z,22.20
2018-12-20T22:35:53.616Z,20.53
2018-12-20T22:38:21.746Z,16.37
2018-12-20T22:40:49.865Z,14.50
2018-12-20T22:43:17.989Z,16.30
2018-12-20T22:45:46.385Z,16.63
2018-12-20T22:48:14.604Z,19.10
2018-12-20T22:50:42.738Z,18.17
2018-12-20T22:53:10.914Z,18.20
2018-12-20T22:55:40.681Z,22.83
2018-12-20T22:58:08.814Z,17.37
2018-12-20T23:00:37.009Z,20.93
2018-12-20T23:03:05.164Z,16.97
2018-12-20T23:05:33.298Z,19.80
2018-12-20T23:08:01.434Z,18.93
2018-12-20T23:10:29.584Z,16.33
2018-12-20T23:14:27.018Z,14.07
2018-12-20T23:16:55.206Z,17.03
2018-12-20T23:19:23.399Z,14.87
2018-12-20T23:21:51.594Z,13.77
2018-12-20T23:24:19.757Z,14.03
2018-12-20T23:26:47.878Z,18.87
2018-12-20T23:29:16.000Z,11.43
2018-12-20T23:31:44.164Z,12.60
2018-12-20T23:34:12.311Z,10.63
2018-12-20T23:36:41.205Z,18.13
2018-12-20T23:39:09.756Z,19.60
2018-12-20T23:41:37.873Z,15.13
2018-12-20T23:44:06.070Z,15.93
2018-12-20T23:46:34.424Z,14.00
2018-12-20T23:49:02.597Z,18.00
2018-12-20T23:51:30.779Z,20.87
2018-12-20T23:53:59.447Z,20.93
2018-12-20T23:56:28.103Z,14.37
2018-12-20T23:58:56.222Z,17.77
